createdAt,value
2022-12-24T00:01:38.021Z,2.72
2022-12-24T00:04:06.900Z,2.20
2022-12-24T00:06:35.513Z,1.88
2022-12-24T00:09:05.760Z,1.95
2022-12-24T00:11:34.219Z,1.52
2022-12-24T00:14:02.657Z,1.60
2022-12-24T00:16:31.048Z,1.65
2022-12-24T00:18:59.558Z,1.17
2022-12-24T00:21:28.025Z,1.00
2022-12-24T00:23:56.590Z,1.02
2022-12-24T00:26:26.401Z,1.20
2022-12-24T00:28:55.036Z,1.20
2022-12-24T00:31:23.445Z,1.00
2022-12-24T00:33:52.217Z,1.00
2022-12-24T00:36:21.795Z,1.10
2022-12-24T00:38:50.426Z,1.30
2022-12-24T00:41:29.307Z,1.30
2022-12-24T00:44:01.563Z,1.23
2022-12-24T00:46:31.896Z,1.60
2022-12-24T00:49:00.487Z,1.55
2022-12-24T00:51:29.653Z,1.88
2022-12-24T00:53:58.361Z,2.03
2022-12-24T00:56:26.830Z,1.70
2022-12-24T00:58:55.706Z,1.80
2022-12-24T01:01:26.265Z,2.28
2022-12-24T01:04:15.416Z,2.25
2022-12-24T01:06:42.688Z,2.25
2022-12-24T01:09:11.438Z,2.30
2022-12-24T01:11:40.061Z,2.00
2022-12-24T01:14:08.711Z,1.95
2022-12-24T01:16:38.907Z,2.58
2022-12-24T01:19:07.501Z,2.17
2022-12-24T01:21:36.234Z,1.70
2022-12-24T01:24:04.957Z,2.25
2022-12-24T01:26:33.530Z,1.80
2022-12-24T01:29:02.135Z,2.25
2022-12-24T01:31:30.752Z,1.95
2022-12-24T01:34:01.017Z,2.15
2022-12-24T01:36:29.670Z,1.85
2022-12-24T01:38:58.306Z,2.30
2022-12-24T01:41:44.517Z,1.95
2022-12-24T01:44:33.204Z,2.30
2022-12-24T01:47:09.507Z,1.73
2022-12-24T01:49:42.363Z,2.20
2022-12-24T01:52:15.289Z,2.30
2022-12-24T01:54:48.837Z,2.50
2022-12-24T01:57:23.389Z,2.10
2022-12-24T01:59:58.098Z,2.10
2022-12-24T02:02:27.488Z,2.70
2022-12-24T02:05:03.548Z,2.78
2022-12-24T02:07:32.868Z,2.20
2022-12-24T02:10:02.647Z,1.90
2022-12-24T02:12:36.414Z,2.47
2022-12-24T02:15:05.388Z,2.55
2022-12-24T02:17:41.377Z,2.55
2022-12-24T02:20:39.184Z,2.17
2022-12-24T02:23:36.007Z,2.10
2022-12-24T02:26:25.729Z,1.90
2022-12-24T02:29:20.569Z,2.42
2022-12-24T02:31:53.855Z,2.42
2022-12-24T02:34:30.244Z,2.50
2022-12-24T02:37:05.489Z,2.00
2022-12-24T02:39:41.671Z,2.10
2022-12-24T02:42:11.607Z,2.22
2022-12-24T02:44:46.031Z,2.50
2022-12-24T02:47:18.248Z,2.40
2022-12-24T02:49:48.684Z,2.30
2022-12-24T02:52:35.044Z,2.50
2022-12-24T02:55:07.475Z,2.45
2022-12-24T02:57:51.788Z,1.92
2022-12-24T03:00:22.178Z,2.08
2022-12-24T03:03:08.822Z,2.30
2022-12-24T03:05:43.748Z,2.30
2022-12-24T03:08:18.392Z,2.30
2022-12-24T03:10:55.185Z,2.50
2022-12-24T03:13:25.902Z,2.40
2022-12-24T03:15:54.482Z,2.30
2022-12-24T03:18:26.578Z,1.95
2022-12-24T03:21:00.398Z,2.55
2022-12-24T03:23:28.957Z,2.40
2022-12-24T03:25:57.460Z,2.10
2022-12-24T03:28:28.466Z,1.75
2022-12-24T03:30:56.982Z,1.90
2022-12-24T03:33:26.830Z,2.00
2022-12-24T03:35:55.372Z,1.98
2022-12-24T03:38:24.250Z,1.98
2022-12-24T03:40:52.667Z,2.22
2022-12-24T03:43:21.665Z,2.95
2022-12-24T03:45:50.333Z,2.55
2022-12-24T03:48:18.976Z,2.08
2022-12-24T03:50:49.330Z,2.05
2022-12-24T03:53:17.986Z,2.35
2022-12-24T03:55:46.467Z,2.55
2022-12-24T03:58:14.957Z,1.75
2022-12-24T04:00:43.611Z,2.10
2022-12-24T04:03:12.005Z,2.20
2022-12-24T04:05:40.721Z,2.00
2022-12-24T04:08:10.845Z,1.63
2022-12-24T04:10:39.442Z,1.40
2022-12-24T04:13:08.194Z,2.80
2022-12-24T04:15:36.635Z,1.70
2022-12-24T04:18:05.789Z,1.92
2022-12-24T04:20:34.818Z,1.92
2022-12-24T04:23:03.299Z,1.73
2022-12-24T04:25:33.447Z,1.85
2022-12-24T04:28:03.900Z,1.50
2022-12-24T04:30:32.706Z,1.73
2022-12-24T04:33:03.232Z,1.67
2022-12-24T04:35:31.903Z,1.55
2022-12-24T04:38:00.882Z,2.05
2022-12-24T04:40:29.445Z,1.80
2022-12-24T04:42:59.402Z,1.55
2022-12-24T04:45:28.360Z,1.65
2022-12-24T04:47:57.228Z,1.90
2022-12-24T04:50:25.851Z,1.60
2022-12-24T04:52:54.534Z,1.75
2022-12-24T04:55:23.245Z,1.60
2022-12-24T04:57:53.264Z,2.40
2022-12-24T05:00:23.779Z,1.45
2022-12-24T05:02:52.495Z,1.92
2022-12-24T05:05:21.459Z,2.38
2022-12-24T05:07:52.351Z,1.77
2022-12-24T05:10:20.875Z,1.60
2022-12-24T05:12:49.451Z,1.83
2022-12-24T05:15:18.217Z,1.50
2022-12-24T05:17:48.052Z,1.70
2022-12-24T05:20:16.580Z,1.85
2022-12-24T05:23:02.767Z,1.70
2022-12-24T05:25:55.328Z,1.45
2022-12-24T05:28:24.110Z,1.90
2022-12-24T05:30:53.203Z,2.15
2022-12-24T05:33:23.053Z,2.20
2022-12-24T05:35:53.311Z,1.80
2022-12-24T05:38:21.688Z,1.58
2022-12-24T05:40:50.294Z,1.55
2022-12-24T05:43:18.717Z,1.60
2022-12-24T05:45:47.303Z,1.83
2022-12-24T05:48:15.841Z,1.30
2022-12-24T05:50:46.285Z,1.73
2022-12-24T05:53:15.021Z,1.45
2022-12-24T05:55:43.827Z,1.40
2022-12-24T05:58:12.373Z,1.85
2022-12-24T06:00:48.277Z,1.63
2022-12-24T06:03:16.679Z,1.98
2022-12-24T06:08:37.375Z,2.22
2022-12-24T06:11:12.092Z,1.60
2022-12-24T06:13:42.348Z,1.27
2022-12-24T06:16:13.363Z,1.60
2022-12-24T06:18:54.585Z,1.40
2022-12-24T06:21:33.854Z,1.67
2022-12-24T06:24:21.436Z,1.65
2022-12-24T06:26:50.627Z,1.52
2022-12-24T06:29:19.561Z,1.67
2022-12-24T06:31:50.507Z,1.80
2022-12-24T06:34:36.805Z,1.60
2022-12-24T06:37:07.217Z,1.75
2022-12-24T06:39:35.809Z,1.85
2022-12-24T06:42:04.753Z,1.85
2022-12-24T06:44:33.196Z,1.40
2022-12-24T06:47:01.809Z,1.70
2022-12-24T06:49:30.186Z,1.80
2022-12-24T06:51:58.805Z,1.83
2022-12-24T06:54:28.746Z,1.90
2022-12-24T06:56:58.074Z,1.60
2022-12-24T06:59:26.628Z,2.00
2022-12-24T07:01:55.111Z,2.70
2022-12-24T07:04:23.643Z,2.50
2022-12-24T07:06:52.152Z,2.35
2022-12-24T07:09:20.658Z,2.15
2022-12-24T07:11:50.868Z,2.25
2022-12-24T07:14:19.517Z,2.72
2022-12-24T07:16:49.603Z,2.47
2022-12-24T07:19:21.003Z,2.90
2022-12-24T07:21:50.122Z,2.50
2022-12-24T07:24:20.412Z,2.38
2022-12-24T07:26:50.887Z,2.10
2022-12-24T07:29:19.660Z,2.35
2022-12-24T07:31:48.425Z,3.88
2022-12-24T07:34:17.102Z,7.78
2022-12-24T07:36:45.996Z,3.05
2022-12-24T07:39:14.765Z,1.85
2022-12-24T07:41:43.617Z,2.10
2022-12-24T07:44:15.570Z,2.83
2022-12-24T07:46:44.678Z,2.15
2022-12-24T07:49:13.572Z,1.80
2022-12-24T07:51:42.401Z,2.78
2022-12-24T07:54:11.188Z,2.35
2022-12-24T07:56:40.090Z,1.90
2022-12-24T07:59:08.634Z,2.92
2022-12-24T08:01:38.757Z,1.75
2022-12-24T08:04:07.612Z,2.10
2022-12-24T08:06:39.166Z,1.95
2022-12-24T08:09:07.853Z,1.95
2022-12-24T08:11:36.459Z,2.15
2022-12-24T08:14:04.804Z,1.88
2022-12-24T08:16:33.245Z,2.35
2022-12-24T08:19:03.253Z,1.55
2022-12-24T08:21:31.671Z,1.98
2022-12-24T08:24:00.021Z,2.22
2022-12-24T08:26:28.468Z,1.80
2022-12-24T08:28:57.360Z,3.08
2022-12-24T08:31:25.841Z,2.63
2022-12-24T08:33:54.216Z,3.10
2022-12-24T08:36:23.986Z,2.50
2022-12-24T08:38:52.411Z,2.97
2022-12-24T08:41:20.981Z,2.55
2022-12-24T08:43:49.651Z,3.17
2022-12-24T08:46:18.166Z,2.88
2022-12-24T08:48:46.670Z,2.38
2022-12-24T08:51:15.285Z,2.45
2022-12-24T08:53:45.138Z,1.63
2022-12-24T08:56:14.026Z,2.35
2022-12-24T08:58:42.548Z,2.25
2022-12-24T09:01:22.117Z,2.50
2022-12-24T09:03:50.801Z,2.33
2022-12-24T09:06:19.674Z,2.42
2022-12-24T09:08:49.584Z,3.58
2022-12-24T09:11:20.609Z,2.45
2022-12-24T09:13:49.391Z,2.65
2022-12-24T09:16:18.356Z,3.03
2022-12-24T09:18:46.973Z,2.55
2022-12-24T09:21:17.784Z,2.60
2022-12-24T09:23:49.748Z,2.05
2022-12-24T09:26:21.009Z,3.80
2022-12-24T09:28:50.123Z,2.63
2022-12-24T09:31:18.665Z,3.47
2022-12-24T09:33:49.030Z,4.85
2022-12-24T09:36:17.477Z,2.60
2022-12-24T09:38:46.365Z,2.13
2022-12-24T09:41:22.112Z,2.88
2022-12-24T09:43:57.961Z,2.50
2022-12-24T09:46:30.841Z,2.30
2022-12-24T09:49:04.214Z,2.15
2022-12-24T09:51:40.309Z,2.05
2022-12-24T09:54:16.947Z,3.20
2022-12-24T09:56:48.411Z,2.10
2022-12-24T09:59:19.363Z,2.78
2022-12-24T10:01:48.390Z,2.00
2022-12-24T10:04:18.363Z,2.67
2022-12-24T10:06:53.340Z,2.75
2022-12-24T10:09:33.339Z,2.28
2022-12-24T10:12:10.268Z,3.75
2022-12-24T10:14:56.746Z,2.45
2022-12-24T10:17:39.759Z,1.75
2022-12-24T10:20:23.943Z,2.35
2022-12-24T10:22:59.659Z,2.00
2022-12-24T10:25:31.714Z,3.05
2022-12-24T10:28:05.199Z,2.03
2022-12-24T10:30:39.585Z,2.45
2022-12-24T10:33:16.469Z,1.98
2022-12-24T10:35:50.183Z,2.30
2022-12-24T10:38:18.585Z,1.65
2022-12-24T10:40:50.185Z,2.30
2022-12-24T10:43:22.355Z,3.17
2022-12-24T10:45:55.196Z,2.03
2022-12-24T10:48:28.453Z,1.95
2022-12-24T10:51:04.844Z,2.28
2022-12-24T10:53:41.663Z,2.10
2022-12-24T10:56:14.404Z,2.15
2022-12-24T10:58:47.640Z,2.55
2022-12-24T11:01:16.209Z,2.83
2022-12-24T11:03:44.876Z,1.98
2022-12-24T11:06:15.193Z,2.22
2022-12-24T11:08:45.637Z,2.08
2022-12-24T11:11:17.261Z,2.63
2022-12-24T11:13:54.429Z,2.35
2022-12-24T11:16:27.852Z,2.55
2022-12-24T11:18:58.802Z,2.05
2022-12-24T11:21:32.068Z,2.13
2022-12-24T11:24:05.606Z,2.13
2022-12-24T11:26:36.768Z,2.90
2022-12-24T11:29:14.576Z,2.55
2022-12-24T11:31:46.588Z,3.17
2022-12-24T11:34:29.279Z,3.40
2022-12-24T11:37:14.660Z,3.30
2022-12-24T11:39:47.661Z,3.20
2022-12-24T11:42:27.802Z,3.42
2022-12-24T11:45:01.022Z,3.70
2022-12-24T11:47:37.633Z,3.58
2022-12-24T11:50:26.311Z,3.20
2022-12-24T11:53:00.648Z,2.97
2022-12-24T11:55:41.357Z,3.28
2022-12-24T11:58:22.675Z,3.25
2022-12-24T12:00:53.844Z,2.22
2022-12-24T12:03:31.866Z,2.28
2022-12-24T12:06:02.933Z,2.45
2022-12-24T12:08:32.824Z,4.55
2022-12-24T12:11:04.019Z,5.32
2022-12-24T12:13:34.207Z,2.70
2022-12-24T12:16:16.127Z,3.30
2022-12-24T12:18:50.852Z,4.82
2022-12-24T12:21:22.389Z,3.88
2022-12-24T12:23:53.850Z,4.30
2022-12-24T12:26:25.862Z,4.47
2022-12-24T12:28:59.216Z,2.10
2022-12-24T12:31:35.502Z,2.90
2022-12-24T12:34:11.204Z,5.13
2022-12-24T12:36:48.126Z,3.60
2022-12-24T12:39:19.823Z,3.40
2022-12-24T12:41:57.128Z,3.45
2022-12-24T12:44:49.565Z,2.28
2022-12-24T12:47:48.823Z,2.20
2022-12-24T12:50:24.548Z,2.33
2022-12-24T12:53:06.318Z,2.17
2022-12-24T12:55:44.266Z,2.40
2022-12-24T12:58:19.761Z,2.30
2022-12-24T13:01:00.590Z,1.85
2022-12-24T13:04:12.717Z,1.70
2022-12-24T13:07:13.043Z,1.88
2022-12-24T13:10:08.148Z,1.60
2022-12-24T13:13:00.179Z,1.75
2022-12-24T13:15:48.567Z,1.60
2022-12-24T13:18:45.501Z,1.50
2022-12-24T13:21:23.879Z,2.20
2022-12-24T13:23:52.916Z,1.58
2022-12-24T13:26:21.915Z,2.05
2022-12-24T13:28:50.461Z,1.48
2022-12-24T13:31:32.953Z,1.73
2022-12-24T13:34:04.269Z,2.00
2022-12-24T13:37:04.621Z,1.60
2022-12-24T13:40:06.213Z,1.70
2022-12-24T13:43:10.319Z,1.67
2022-12-24T13:45:55.766Z,1.30
2022-12-24T13:48:33.697Z,2.10
2022-12-24T13:51:20.407Z,1.90
2022-12-24T13:53:49.911Z,2.13
2022-12-24T13:56:33.959Z,2.00
2022-12-24T13:59:15.513Z,1.65
2022-12-24T14:01:45.532Z,2.08
2022-12-24T14:04:25.294Z,2.22
2022-12-24T14:06:57.927Z,2.70
2022-12-24T14:09:28.616Z,3.78
2022-12-24T14:12:31.840Z,2.50
2022-12-24T14:15:01.262Z,2.63
2022-12-24T14:17:31.235Z,1.92
2022-12-24T14:20:02.026Z,1.67
2022-12-24T14:22:35.515Z,2.13
2022-12-24T14:25:08.147Z,1.90
2022-12-24T14:27:46.076Z,2.38
2022-12-24T14:30:21.337Z,2.22
2022-12-24T14:32:51.259Z,1.73
2022-12-24T14:35:21.703Z,2.17
2022-12-24T14:37:58.340Z,2.38
2022-12-24T14:40:31.835Z,2.60
2022-12-24T14:43:07.309Z,4.45
2022-12-24T14:45:46.441Z,3.00
2022-12-24T14:48:22.534Z,2.80
2022-12-24T14:51:04.732Z,2.72
2022-12-24T14:53:49.504Z,2.53
2022-12-24T14:56:20.387Z,3.00
2022-12-24T14:58:52.500Z,2.67
2022-12-24T15:01:23.795Z,3.50
2022-12-24T15:04:03.091Z,3.30
2022-12-24T15:06:36.518Z,3.28
2022-12-24T15:09:14.765Z,11.95
2022-12-24T15:11:54.656Z,7.10
2022-12-24T15:14:25.091Z,9.27
2022-12-24T15:16:58.180Z,9.52
2022-12-24T15:19:30.208Z,6.82
2022-12-24T15:21:58.615Z,10.15
2022-12-24T15:24:32.569Z,7.75
2022-12-24T15:27:03.044Z,5.93
2022-12-24T15:29:33.712Z,8.68
2022-12-24T15:32:05.121Z,5.63
2022-12-24T15:34:40.176Z,4.20
2022-12-24T15:37:15.803Z,5.03
2022-12-24T15:39:46.856Z,5.40
2022-12-24T15:42:23.030Z,4.00
2022-12-24T15:45:00.000Z,4.20
2022-12-24T15:47:37.718Z,4.65
2022-12-24T15:50:19.480Z,4.30
2022-12-24T15:52:48.788Z,4.63
2022-12-24T15:55:41.661Z,5.82
2022-12-24T15:58:18.536Z,5.68
2022-12-24T16:01:05.884Z,5.35
2022-12-24T16:03:34.719Z,4.53
2022-12-24T16:06:03.724Z,6.18
2022-12-24T16:08:33.988Z,6.75
2022-12-24T16:11:19.469Z,6.28
2022-12-24T16:14:05.714Z,6.40
2022-12-24T16:16:37.357Z,9.40
2022-12-24T16:19:08.524Z,14.15
2022-12-24T16:21:39.250Z,25.38
2022-12-24T16:24:20.348Z,5.15
2022-12-24T16:26:53.709Z,4.88
2022-12-24T16:29:32.146Z,3.30
2022-12-24T16:35:04.433Z,2.75
2022-12-24T16:37:36.891Z,3.00
2022-12-24T16:40:10.232Z,3.05
2022-12-24T16:43:01.503Z,6.65
2022-12-24T16:45:31.533Z,7.40
2022-12-24T16:48:07.406Z,5.50
2022-12-24T16:50:36.249Z,3.63
2022-12-24T16:53:04.734Z,1.80
2022-12-24T16:55:33.154Z,2.13
2022-12-24T16:58:03.162Z,1.38
2022-12-24T17:00:31.922Z,1.63
2022-12-24T17:03:01.036Z,2.00
2022-12-24T17:05:35.296Z,1.83
2022-12-24T17:08:04.553Z,1.92
2022-12-24T17:10:36.719Z,2.80
2022-12-24T17:13:10.915Z,2.80
2022-12-24T17:15:43.584Z,5.70
2022-12-24T17:18:12.249Z,9.73
2022-12-24T17:20:40.597Z,5.78
2022-12-24T17:23:08.939Z,6.78
2022-12-24T17:25:43.416Z,6.53
2022-12-24T17:28:14.018Z,6.85
2022-12-24T17:30:42.478Z,18.50
2022-12-24T17:33:14.895Z,10.77
2022-12-24T17:35:44.767Z,6.38
2022-12-24T17:38:13.424Z,3.65
2022-12-24T17:40:41.818Z,3.08
2022-12-24T17:43:10.922Z,3.00
2022-12-24T17:45:43.405Z,7.80
2022-12-24T17:48:11.788Z,8.63
2022-12-24T17:50:40.993Z,4.85
2022-12-24T17:53:09.895Z,2.95
2022-12-24T17:55:43.271Z,2.65
2022-12-24T17:58:11.934Z,2.10
2022-12-24T18:00:40.878Z,2.25
2022-12-24T18:03:14.562Z,2.45
2022-12-24T18:05:43.884Z,3.13
2022-12-24T18:08:12.781Z,2.75
2022-12-24T18:10:41.316Z,2.97
2022-12-24T18:13:13.934Z,3.33
2022-12-24T18:15:47.440Z,4.57
2022-12-24T18:18:17.373Z,4.90
2022-12-24T18:20:47.135Z,5.88
2022-12-24T18:23:15.636Z,7.07
2022-12-24T18:25:44.290Z,3.40
2022-12-24T18:28:12.908Z,2.80
2022-12-24T18:30:41.740Z,6.30
2022-12-24T18:33:14.771Z,4.85
2022-12-24T18:35:47.577Z,3.40
2022-12-24T18:38:21.902Z,18.05
2022-12-24T18:41:08.294Z,6.43
2022-12-24T18:43:38.161Z,8.25
2022-12-24T18:46:10.310Z,4.18
2022-12-24T18:48:44.945Z,3.78
2022-12-24T18:51:16.579Z,3.55
2022-12-24T18:53:56.886Z,3.70
2022-12-24T18:56:27.897Z,5.10
2022-12-24T18:59:03.894Z,6.00
2022-12-24T19:01:35.076Z,6.30
2022-12-24T19:04:09.228Z,5.70
2022-12-24T19:06:50.749Z,6.88
2022-12-24T19:09:21.802Z,6.28
2022-12-24T19:12:05.169Z,4.25
2022-12-24T19:14:35.118Z,16.60
2022-12-24T19:17:06.564Z,9.50
2022-12-24T19:19:35.048Z,6.15
2022-12-24T19:22:17.176Z,11.95
2022-12-24T19:24:53.489Z,16.17
2022-12-24T19:27:26.862Z,15.52
2022-12-24T19:29:55.885Z,6.15
2022-12-24T19:32:25.018Z,6.45
2022-12-24T19:34:53.849Z,11.35
2022-12-24T19:37:25.406Z,10.05
2022-12-24T19:39:54.283Z,5.00
2022-12-24T19:42:35.393Z,5.60
2022-12-24T19:45:07.265Z,6.88
2022-12-24T19:47:35.865Z,5.60
2022-12-24T19:50:04.367Z,9.18
2022-12-24T19:52:54.683Z,12.75
2022-12-24T19:55:26.681Z,11.95
2022-12-24T19:57:55.237Z,12.30
2022-12-24T20:00:23.977Z,8.88
2022-12-24T20:02:52.815Z,9.07
2022-12-24T20:05:23.750Z,8.80
2022-12-24T20:07:53.940Z,10.05
2022-12-24T20:10:22.982Z,15.50
2022-12-24T20:12:51.630Z,15.27
2022-12-24T20:15:22.220Z,9.48
2022-12-24T20:17:52.329Z,9.45
2022-12-24T20:20:21.527Z,11.00
2022-12-24T20:22:50.358Z,11.07
2022-12-24T20:25:23.811Z,12.30
2022-12-24T20:27:52.620Z,21.35
2022-12-24T20:30:37.660Z,6.65
2022-12-24T20:33:08.929Z,5.88
2022-12-24T20:35:37.854Z,6.55
2022-12-24T20:38:09.188Z,8.48
2022-12-24T20:40:42.628Z,25.85
2022-12-24T20:43:11.319Z,12.35
2022-12-24T20:45:45.423Z,10.75
2022-12-24T20:48:14.481Z,11.65
2022-12-24T20:50:48.194Z,7.35
2022-12-24T20:53:20.377Z,9.75
2022-12-24T20:55:55.333Z,7.45
2022-12-24T20:58:29.612Z,5.90
2022-12-24T21:00:59.299Z,5.90
2022-12-24T21:03:28.950Z,5.03
2022-12-24T21:05:58.792Z,5.50
2022-12-24T21:08:36.676Z,5.93
2022-12-24T21:11:48.134Z,6.55
2022-12-24T21:14:25.909Z,5.03
2022-12-24T21:16:59.730Z,5.70
2022-12-24T21:19:40.437Z,5.82
2022-12-24T21:22:19.641Z,5.40
2022-12-24T21:24:49.325Z,4.68
2022-12-24T21:27:39.365Z,4.50
2022-12-24T21:33:08.943Z,4.13
2022-12-24T21:38:30.973Z,4.90
2022-12-24T21:41:06.346Z,4.78
2022-12-24T21:43:39.963Z,3.97
2022-12-24T21:46:10.609Z,4.72
2022-12-24T21:48:58.111Z,4.45
2022-12-24T21:51:47.644Z,3.63
2022-12-24T21:54:30.869Z,4.28
2022-12-24T21:57:22.506Z,3.58
2022-12-24T21:59:54.385Z,4.07
2022-12-24T22:02:43.941Z,4.15
2022-12-24T22:05:21.779Z,4.20
2022-12-24T22:08:07.725Z,4.47
2022-12-24T22:11:03.410Z,4.25
2022-12-24T22:19:53.334Z,4.00
2022-12-24T22:22:25.263Z,3.35
2022-12-24T22:28:06.521Z,3.97
2022-12-24T22:30:39.957Z,3.83
2022-12-24T22:33:29.201Z,3.83
2022-12-24T22:35:58.087Z,3.63
2022-12-24T22:38:39.298Z,3.80
2022-12-24T22:41:10.198Z,3.85
2022-12-24T22:43:39.995Z,4.15
2022-12-24T22:46:12.489Z,3.72
2022-12-24T22:48:46.374Z,3.88
2022-12-24T22:51:17.329Z,3.97
2022-12-24T22:53:48.187Z,3.90
2022-12-24T22:56:20.104Z,4.57
2022-12-24T22:58:55.645Z,4.25
2022-12-24T23:01:36.346Z,4.78
2022-12-24T23:04:10.906Z,4.50
2022-12-24T23:06:41.476Z,3.97
2022-12-24T23:09:12.390Z,3.83
2022-12-24T23:11:48.270Z,4.10
2022-12-24T23:14:38.323Z,4.00
2022-12-24T23:17:21.192Z,3.83
2022-12-24T23:19:56.669Z,6.20
2022-12-24T23:22:30.251Z,5.63
2022-12-24T23:25:00.058Z,5.80
2022-12-24T23:27:30.718Z,5.15
2022-12-24T23:29:59.615Z,4.50
2022-12-24T23:32:28.369Z,5.13
2022-12-24T23:35:05.734Z,5.28
2022-12-24T23:37:35.388Z,5.25
2022-12-24T23:40:07.238Z,5.25
2022-12-24T23:42:36.250Z,5.95
2022-12-24T23:45:05.456Z,4.90
2022-12-24T23:47:34.279Z,6.68
2022-12-24T23:50:05.344Z,7.35
2022-12-24T23:52:34.223Z,7.45
2022-12-24T23:55:02.978Z,6.78
2022-12-24T23:57:31.710Z,6.90
